Terminal Aerodrome Forecast
Issued by NWS

Home | Current Version | Previous Version | Text Only | Print | Product List | Glossary On
Versions: 1 2 3 4 5 6 7 8 9 10 11 12 13 14
000
FTUS41 KBTV 012320
TAFMSS
TAF
KMSS 012320Z 0200/0224 VRB03KT P6SM SKC
     FM020800 14008KT P6SM BKN080 OVC120
     FM021200 21012KT P6SM SCT080
     FM021500 22012G25KT P6SM SCT100=

USA.gov is the U.S. government's official web portal to all federal, state and local government web resources and services.